Aeroporto :
LOGIN :

Iscrizione | Disclaimer

   EN    FR    IT 

 










Sommario :    VFR   VFR Marginale   IFR   IFR Intensivo   IFR Molto Intensivo
Visibilità : 
Base nubi : 
>= 8 km
>= 3000ft
5 / 8 km
1000 / 3000 ft
1500m / 5 km
500 / 1000 ft
800 / 1500m
200 / 500 ft
< 800m
< 200 ft
Simboli :   Temporali  Nebbia  Neve Forte  Precipitazioni Forti  Vento > 20 kt
SIGMETs :   Varie  Temporali  Ghiacco  Turbolenza  Onda orograficha  Ceneri Vulcaniche






- Altitudine del aeroporto : 645 ft
- Codice IATA : DLE


LFGJ - Dole Tavaux

ULTIMO METAR :
  • 231300Z AUTO 23005KT 190V260 5000 BR SCT007 BKN130 15/13 Q1010 NOSIG

METARs OBSOLETI :
  • 231230Z AUTO 25003KT 4000 BR OVC005 14/13 Q1010 BECMG 7000 NSW SCT010
  • 231200Z AUTO 29006KT 250V350 2900 BR OVC006 14/13 Q1010 BECMG 7000 NSW SCT010
  • 231130Z AUTO VRB04KT 6000 OVC006 13/13 Q1011 BECMG NSC
  • 231100Z AUTO VRB02KT 5000 BR OVC006 13/12 Q1011 BECMG NSC
  • 231030Z AUTO 22004KT 190V260 4000 BR OVC004 13/12 Q1012 BECMG 7000 NSW NSC

TAF AMD TAF LFGJ
Valido dal 23 a 12 ore il 23 a 21 ore UTC


231211Z 2312/2321 VRB04KT 2500 BR BKN003
BECMG 2312/2314 7000 NSW SCT010



MetMap, La meteo Aeronautica in un colpo d'occhio ! - Copyright ORBIFLY Dicembre 2007 - Disclaimer

ORBIFLY MET'MAP TEAM :

Programmazione e sviluppo : Alexandra Zaïnal
Concezione e sviluppo : Baudouin d'Aumeries
Co-Programmazione e sviluppo : Marc-Olivier Méhu
Supporto tecnico e logistico : Manuel Goepfert
Aiuto per la traduzione : Arnaldo La Scala

Contatto : metmap@orbifly.com




FONTI E CREDITI :

   NOAA